sensor_id;sensor_type;location;lat;lon;timestamp;P1;durP1;ratioP1;P2;durP2;ratioP2
17598;SDS011;8918;52.092;5.232;2023-03-23T00:01:54;6.83;;;4.67;;
17598;SDS011;8918;52.092;5.232;2023-03-23T00:04:20;10.47;;;5.40;;
17598;SDS011;8918;52.092;5.232;2023-03-23T00:06:46;8.30;;;5.10;;
17598;SDS011;8918;52.092;5.232;2023-03-23T00:09:12;8.27;;;4.57;;
17598;SDS011;8918;52.092;5.232;2023-03-23T00:11:39;8.87;;;5.10;;
17598;SDS011;8918;52.092;5.232;2023-03-23T00:14:06;7.37;;;4.93;;
17598;SDS011;8918;52.092;5.232;2023-03-23T00:16:38;8.30;;;4.80;;
17598;SDS011;8918;52.092;5.232;2023-03-23T00:19:06;8.93;;;5.20;;
17598;SDS011;8918;52.092;5.232;2023-03-23T00:21:34;8.87;;;4.97;;
17598;SDS011;8918;52.092;5.232;2023-03-23T00:26:38;8.90;;;5.00;;
17598;SDS011;8918;52.092;5.232;2023-03-23T00:29:06;7.97;;;5.03;;
17598;SDS011;8918;52.092;5.232;2023-03-23T00:31:35;11.33;;;4.87;;
17598;SDS011;8918;52.092;5.232;2023-03-23T00:34:02;8.17;;;4.50;;
17598;SDS011;8918;52.092;5.232;2023-03-23T00:36:29;6.27;;;4.47;;
17598;SDS011;8918;52.092;5.232;2023-03-23T00:38:57;7.87;;;4.20;;
17598;SDS011;8918;52.092;5.232;2023-03-23T00:41:26;5.90;;;4.30;;
17598;SDS011;8918;52.092;5.232;2023-03-23T00:43:56;7.23;;;4.20;;
17598;SDS011;8918;52.092;5.232;2023-03-23T00:46:25;7.97;;;4.13;;
17598;SDS011;8918;52.092;5.232;2023-03-23T00:48:51;6.40;;;4.10;;
17598;SDS011;8918;52.092;5.232;2023-03-23T00:51:17;7.27;;;4.13;;
17598;SDS011;8918;52.092;5.232;2023-03-23T00:53:44;7.00;;;4.30;;
17598;SDS011;8918;52.092;5.232;2023-03-23T00:56:10;5.03;;;3.83;;
17598;SDS011;8918;52.092;5.232;2023-03-23T00:58:36;5.63;;;3.63;;
17598;SDS011;8918;52.092;5.232;2023-03-23T01:01:02;8.50;;;3.60;;
17598;SDS011;8918;52.092;5.232;2023-03-23T01:03:29;6.43;;;3.50;;
17598;SDS011;8918;52.092;5.232;2023-03-23T01:05:55;5.97;;;4.00;;
17598;SDS011;8918;52.092;5.232;2023-03-23T01:08:21;6.30;;;3.70;;
17598;SDS011;8918;52.092;5.232;2023-03-23T01:10:48;6.00;;;3.13;;
17598;SDS011;8918;52.092;5.232;2023-03-23T01:13:15;5.53;;;2.90;;
17598;SDS011;8918;52.092;5.232;2023-03-23T01:15:41;8.30;;;3.63;;
17598;SDS011;8918;52.092;5.232;2023-03-23T01:18:08;5.63;;;3.23;;
17598;SDS011;8918;52.092;5.232;2023-03-23T01:20:35;6.53;;;3.37;;
17598;SDS011;8918;52.092;5.232;2023-03-23T01:23:01;7.13;;;3.53;;
17598;SDS011;8918;52.092;5.232;2023-03-23T01:25:28;4.50;;;3.73;;
17598;SDS011;8918;52.092;5.232;2023-03-23T01:27:55;5.13;;;3.53;;
17598;SDS011;8918;52.092;5.232;2023-03-23T01:30:21;4.80;;;3.43;;
17598;SDS011;8918;52.092;5.232;2023-03-23T01:32:47;7.23;;;3.97;;
17598;SDS011;8918;52.092;5.232;2023-03-23T01:35:13;5.87;;;3.57;;
17598;SDS011;8918;52.092;5.232;2023-03-23T01:37:39;4.77;;;3.40;;
17598;SDS011;8918;52.092;5.232;2023-03-23T01:40:04;5.13;;;3.67;;
17598;SDS011;8918;52.092;5.232;2023-03-23T01:42:32;5.23;;;3.83;;
17598;SDS011;8918;52.092;5.232;2023-03-23T01:50:30;5.67;;;3.50;;
17598;SDS011;8918;52.092;5.232;2023-03-23T01:53:00;5.00;;;3.37;;
17598;SDS011;8918;52.092;5.232;2023-03-23T01:55:29;7.77;;;3.90;;
17598;SDS011;8918;52.092;5.232;2023-03-23T01:57:56;5.67;;;3.53;;
17598;SDS011;8918;52.092;5.232;2023-03-23T02:00:22;6.47;;;3.73;;
17598;SDS011;8918;52.092;5.232;2023-03-23T02:02:49;7.23;;;3.90;;
17598;SDS011;8918;52.092;5.232;2023-03-23T02:05:20;4.47;;;3.23;;
17598;SDS011;8918;52.092;5.232;2023-03-23T02:07:50;5.70;;;3.80;;
17598;SDS011;8918;52.092;5.232;2023-03-23T02:10:17;6.07;;;4.00;;
17598;SDS011;8918;52.092;5.232;2023-03-23T02:12:42;5.63;;;3.30;;
17598;SDS011;8918;52.092;5.232;2023-03-23T02:15:08;6.70;;;4.07;;
17598;SDS011;8918;52.092;5.232;2023-03-23T02:17:37;7.40;;;3.87;;
17598;SDS011;8918;52.092;5.232;2023-03-23T02:20:28;7.50;;;4.10;;
17598;SDS011;8918;52.092;5.232;2023-03-23T02:23:26;4.47;;;3.63;;
17598;SDS011;8918;52.092;5.232;2023-03-23T02:26:12;6.13;;;4.00;;
17598;SDS011;8918;52.092;5.232;2023-03-23T02:34:56;4.53;;;3.57;;
17598;SDS011;8918;52.092;5.232;2023-03-23T02:37:36;6.37;;;4.10;;
17598;SDS011;8918;52.092;5.232;2023-03-23T02:40:19;5.57;;;3.73;;
17598;SDS011;8918;52.092;5.232;2023-03-23T02:42:49;4.67;;;3.70;;
17598;SDS011;8918;52.092;5.232;2023-03-23T02:45:19;4.97;;;3.73;;
17598;SDS011;8918;52.092;5.232;2023-03-23T02:47:48;5.80;;;3.53;;
17598;SDS011;8918;52.092;5.232;2023-03-23T02:50:16;5.63;;;3.07;;
17598;SDS011;8918;52.092;5.232;2023-03-23T02:52:45;4.70;;;3.40;;
17598;SDS011;8918;52.092;5.232;2023-03-23T02:55:11;4.73;;;3.27;;
17598;SDS011;8918;52.092;5.232;2023-03-23T02:57:39;6.43;;;3.33;;
17598;SDS011;8918;52.092;5.232;2023-03-23T03:00:06;4.87;;;3.23;;
17598;SDS011;8918;52.092;5.232;2023-03-23T03:02:36;5.30;;;3.03;;
17598;SDS011;8918;52.092;5.232;2023-03-23T03:05:18;4.97;;;2.90;;
17598;SDS011;8918;52.092;5.232;2023-03-23T03:08:10;6.20;;;3.10;;
17598;SDS011;8918;52.092;5.232;2023-03-23T03:10:55;4.73;;;2.73;;
17598;SDS011;8918;52.092;5.232;2023-03-23T03:16:24;5.27;;;2.77;;
17598;SDS011;8918;52.092;5.232;2023-03-23T03:21:30;4.30;;;2.33;;
17598;SDS011;8918;52.092;5.232;2023-03-23T03:24:00;6.13;;;2.30;;
17598;SDS011;8918;52.092;5.232;2023-03-23T03:26:28;4.37;;;2.77;;
17598;SDS011;8918;52.092;5.232;2023-03-23T03:28:56;6.83;;;2.60;;
17598;SDS011;8918;52.092;5.232;2023-03-23T03:31:23;4.00;;;2.20;;
17598;SDS011;8918;52.092;5.232;2023-03-23T03:33:53;4.93;;;2.47;;
17598;SDS011;8918;52.092;5.232;2023-03-23T03:36:21;4.87;;;2.10;;
17598;SDS011;8918;52.092;5.232;2023-03-23T03:38:52;5.30;;;2.03;;
17598;SDS011;8918;52.092;5.232;2023-03-23T03:41:18;5.60;;;2.33;;
17598;SDS011;8918;52.092;5.232;2023-03-23T03:43:45;5.80;;;2.40;;
17598;SDS011;8918;52.092;5.232;2023-03-23T03:46:11;4.40;;;2.40;;
17598;SDS011;8918;52.092;5.232;2023-03-23T03:48:36;3.30;;;2.30;;
17598;SDS011;8918;52.092;5.232;2023-03-23T03:51:02;3.40;;;2.30;;
17598;SDS011;8918;52.092;5.232;2023-03-23T03:53:28;2.50;;;1.93;;
17598;SDS011;8918;52.092;5.232;2023-03-23T03:55:55;5.30;;;2.33;;
17598;SDS011;8918;52.092;5.232;2023-03-23T03:58:24;4.10;;;2.23;;
17598;SDS011;8918;52.092;5.232;2023-03-23T04:00:56;4.30;;;2.27;;
17598;SDS011;8918;52.092;5.232;2023-03-23T04:03:25;4.47;;;2.23;;
17598;SDS011;8918;52.092;5.232;2023-03-23T04:05:52;8.40;;;2.40;;
17598;SDS011;8918;52.092;5.232;2023-03-23T04:08:20;4.10;;;2.33;;
17598;SDS011;8918;52.092;5.232;2023-03-23T04:10:47;3.97;;;2.03;;
17598;SDS011;8918;52.092;5.232;2023-03-23T04:13:13;4.30;;;2.17;;
17598;SDS011;8918;52.092;5.232;2023-03-23T04:15:40;5.17;;;2.00;;
17598;SDS011;8918;52.092;5.232;2023-03-23T04:18:05;4.97;;;2.03;;
17598;SDS011;8918;52.092;5.232;2023-03-23T04:20:31;4.97;;;2.03;;
17598;SDS011;8918;52.092;5.232;2023-03-23T04:23:00;4.00;;;2.00;;
17598;SDS011;8918;52.092;5.232;2023-03-23T04:25:27;5.47;;;2.23;;
17598;SDS011;8918;52.092;5.232;2023-03-23T04:27:52;4.77;;;2.00;;
17598;SDS011;8918;52.092;5.232;2023-03-23T04:30:22;6.20;;;2.10;;
17598;SDS011;8918;52.092;5.232;2023-03-23T04:32:49;6.60;;;2.20;;
17598;SDS011;8918;52.092;5.232;2023-03-23T04:35:17;5.77;;;1.90;;
17598;SDS011;8918;52.092;5.232;2023-03-23T04:37:44;7.63;;;2.10;;
17598;SDS011;8918;52.092;5.232;2023-03-23T04:40:11;9.63;;;2.03;;
17598;SDS011;8918;52.092;5.232;2023-03-23T04:42:39;7.47;;;2.20;;
17598;SDS011;8918;52.092;5.232;2023-03-23T04:45:06;5.33;;;2.10;;
17598;SDS011;8918;52.092;5.232;2023-03-23T04:47:36;4.13;;;1.90;;
17598;SDS011;8918;52.092;5.232;2023-03-23T04:50:18;4.20;;;1.87;;
17598;SDS011;8918;52.092;5.232;2023-03-23T04:52:46;6.30;;;1.80;;
17598;SDS011;8918;52.092;5.232;2023-03-23T04:55:12;5.50;;;2.10;;
17598;SDS011;8918;52.092;5.232;2023-03-23T04:57:38;9.13;;;2.43;;
17598;SDS011;8918;52.092;5.232;2023-03-23T05:00:05;7.90;;;2.20;;
17598;SDS011;8918;52.092;5.232;2023-03-23T05:02:37;5.90;;;2.10;;
17598;SDS011;8918;52.092;5.232;2023-03-23T05:05:04;5.60;;;2.13;;
17598;SDS011;8918;52.092;5.232;2023-03-23T05:07:31;7.93;;;2.33;;
17598;SDS011;8918;52.092;5.232;2023-03-23T05:09:57;6.43;;;2.40;;
17598;SDS011;8918;52.092;5.232;2023-03-23T05:12:22;9.17;;;2.40;;
17598;SDS011;8918;52.092;5.232;2023-03-23T05:14:48;8.03;;;2.57;;
17598;SDS011;8918;52.092;5.232;2023-03-23T05:17:14;8.30;;;1.90;;
17598;SDS011;8918;52.092;5.232;2023-03-23T05:19:42;7.50;;;2.10;;
17598;SDS011;8918;52.092;5.232;2023-03-23T05:22:17;7.50;;;2.23;;
17598;SDS011;8918;52.092;5.232;2023-03-23T05:24:45;7.30;;;2.23;;
17598;SDS011;8918;52.092;5.232;2023-03-23T05:27:11;6.53;;;2.13;;
17598;SDS011;8918;52.092;5.232;2023-03-23T05:29:37;9.67;;;2.50;;
17598;SDS011;8918;52.092;5.232;2023-03-23T05:32:06;10.23;;;2.63;;
17598;SDS011;8918;52.092;5.232;2023-03-23T05:34:33;4.80;;;1.93;;
17598;SDS011;8918;52.092;5.232;2023-03-23T05:37:00;7.40;;;2.10;;
17598;SDS011;8918;52.092;5.232;2023-03-23T05:39:27;7.37;;;2.60;;
17598;SDS011;8918;52.092;5.232;2023-03-23T05:41:53;6.10;;;2.33;;
17598;SDS011;8918;52.092;5.232;2023-03-23T05:44:18;9.23;;;2.43;;
17598;SDS011;8918;52.092;5.232;2023-03-23T05:46:45;8.70;;;2.70;;
17598;SDS011;8918;52.092;5.232;2023-03-23T05:49:10;8.90;;;2.30;;
17598;SDS011;8918;52.092;5.232;2023-03-23T05:51:36;8.03;;;2.37;;
17598;SDS011;8918;52.092;5.232;2023-03-23T05:54:02;9.03;;;2.47;;
17598;SDS011;8918;52.092;5.232;2023-03-23T05:56:28;8.27;;;2.43;;
17598;SDS011;8918;52.092;5.232;2023-03-23T05:58:55;12.97;;;2.80;;
17598;SDS011;8918;52.092;5.232;2023-03-23T06:01:22;10.87;;;2.60;;
17598;SDS011;8918;52.092;5.232;2023-03-23T06:03:48;11.17;;;2.73;;
17598;SDS011;8918;52.092;5.232;2023-03-23T06:06:16;11.13;;;2.50;;
17598;SDS011;8918;52.092;5.232;2023-03-23T06:08:42;7.40;;;2.73;;
17598;SDS011;8918;52.092;5.232;2023-03-23T06:11:09;8.97;;;2.70;;
17598;SDS011;8918;52.092;5.232;2023-03-23T06:13:35;7.63;;;3.07;;
17598;SDS011;8918;52.092;5.232;2023-03-23T06:16:01;6.90;;;2.70;;
17598;SDS011;8918;52.092;5.232;2023-03-23T06:18:27;8.37;;;3.13;;
17598;SDS011;8918;52.092;5.232;2023-03-23T06:20:53;10.30;;;2.70;;
17598;SDS011;8918;52.092;5.232;2023-03-23T06:23:19;7.77;;;2.87;;
17598;SDS011;8918;52.092;5.232;2023-03-23T06:25:45;7.30;;;2.80;;
17598;SDS011;8918;52.092;5.232;2023-03-23T06:28:10;8.57;;;3.23;;
17598;SDS011;8918;52.092;5.232;2023-03-23T06:30:36;13.10;;;2.93;;
17598;SDS011;8918;52.092;5.232;2023-03-23T06:33:02;10.43;;;3.10;;
17598;SDS011;8918;52.092;5.232;2023-03-23T06:35:30;10.77;;;2.80;;
17598;SDS011;8918;52.092;5.232;2023-03-23T06:37:57;9.30;;;3.20;;
17598;SDS011;8918;52.092;5.232;2023-03-23T06:40:26;8.60;;;3.10;;
17598;SDS011;8918;52.092;5.232;2023-03-23T06:42:52;12.73;;;3.33;;
17598;SDS011;8918;52.092;5.232;2023-03-23T06:45:18;8.87;;;2.70;;
17598;SDS011;8918;52.092;5.232;2023-03-23T06:47:47;8.97;;;2.77;;
17598;SDS011;8918;52.092;5.232;2023-03-23T06:50:13;12.47;;;3.03;;
17598;SDS011;8918;52.092;5.232;2023-03-23T06:52:40;9.13;;;3.00;;
17598;SDS011;8918;52.092;5.232;2023-03-23T06:55:06;8.37;;;3.03;;
17598;SDS011;8918;52.092;5.232;2023-03-23T06:57:32;10.70;;;3.47;;
17598;SDS011;8918;52.092;5.232;2023-03-23T06:59:58;10.23;;;3.10;;
17598;SDS011;8918;52.092;5.232;2023-03-23T07:02:23;8.47;;;2.90;;
17598;SDS011;8918;52.092;5.232;2023-03-23T07:04:49;9.07;;;3.40;;
17598;SDS011;8918;52.092;5.232;2023-03-23T07:07:16;9.30;;;3.17;;
17598;SDS011;8918;52.092;5.232;2023-03-23T07:09:43;9.63;;;3.40;;
17598;SDS011;8918;52.092;5.232;2023-03-23T07:12:09;15.17;;;3.10;;
17598;SDS011;8918;52.092;5.232;2023-03-23T07:14:35;7.10;;;3.20;;
17598;SDS011;8918;52.092;5.232;2023-03-23T07:17:02;9.57;;;2.93;;
17598;SDS011;8918;52.092;5.232;2023-03-23T07:19:28;13.43;;;3.13;;
17598;SDS011;8918;52.092;5.232;2023-03-23T07:21:54;8.87;;;3.07;;
17598;SDS011;8918;52.092;5.232;2023-03-23T07:24:21;8.63;;;3.00;;
17598;SDS011;8918;52.092;5.232;2023-03-23T07:26:47;8.87;;;2.87;;
17598;SDS011;8918;52.092;5.232;2023-03-23T07:29:13;14.00;;;2.97;;
17598;SDS011;8918;52.092;5.232;2023-03-23T07:31:38;8.80;;;2.97;;
17598;SDS011;8918;52.092;5.232;2023-03-23T07:34:04;10.43;;;2.60;;
17598;SDS011;8918;52.092;5.232;2023-03-23T07:36:30;10.83;;;2.77;;
17598;SDS011;8918;52.092;5.232;2023-03-23T07:38:56;9.77;;;2.60;;
17598;SDS011;8918;52.092;5.232;2023-03-23T07:41:23;10.27;;;2.37;;
17598;SDS011;8918;52.092;5.232;2023-03-23T07:43:48;9.80;;;2.60;;
17598;SDS011;8918;52.092;5.232;2023-03-23T07:46:14;9.73;;;2.30;;
17598;SDS011;8918;52.092;5.232;2023-03-23T07:48:40;13.17;;;3.20;;
17598;SDS011;8918;52.092;5.232;2023-03-23T07:51:05;7.53;;;2.80;;
17598;SDS011;8918;52.092;5.232;2023-03-23T07:53:32;13.23;;;2.97;;
17598;SDS011;8918;52.092;5.232;2023-03-23T07:55:58;9.87;;;2.77;;
17598;SDS011;8918;52.092;5.232;2023-03-23T07:58:24;8.53;;;2.97;;
17598;SDS011;8918;52.092;5.232;2023-03-23T08:00:50;9.10;;;2.90;;
17598;SDS011;8918;52.092;5.232;2023-03-23T08:03:17;8.00;;;2.83;;
17598;SDS011;8918;52.092;5.232;2023-03-23T08:05:43;6.87;;;2.70;;
17598;SDS011;8918;52.092;5.232;2023-03-23T08:08:09;6.07;;;2.70;;
17598;SDS011;8918;52.092;5.232;2023-03-23T08:10:35;8.67;;;2.83;;
17598;SDS011;8918;52.092;5.232;2023-03-23T08:13:01;7.53;;;2.40;;
17598;SDS011;8918;52.092;5.232;2023-03-23T08:15:27;6.93;;;2.40;;
17598;SDS011;8918;52.092;5.232;2023-03-23T08:17:53;9.37;;;2.60;;
17598;SDS011;8918;52.092;5.232;2023-03-23T08:20:19;6.50;;;2.63;;
17598;SDS011;8918;52.092;5.232;2023-03-23T08:22:51;8.27;;;2.83;;
17598;SDS011;8918;52.092;5.232;2023-03-23T08:25:18;8.20;;;2.50;;
17598;SDS011;8918;52.092;5.232;2023-03-23T08:27:44;5.57;;;2.30;;
17598;SDS011;8918;52.092;5.232;2023-03-23T08:30:11;8.90;;;3.10;;
17598;SDS011;8918;52.092;5.232;2023-03-23T08:32:39;5.57;;;2.43;;
17598;SDS011;8918;52.092;5.232;2023-03-23T08:35:05;5.90;;;2.30;;
17598;SDS011;8918;52.092;5.232;2023-03-23T08:37:33;9.77;;;3.00;;
17598;SDS011;8918;52.092;5.232;2023-03-23T08:40:00;6.27;;;2.33;;
17598;SDS011;8918;52.092;5.232;2023-03-23T08:42:31;6.33;;;2.40;;
17598;SDS011;8918;52.092;5.232;2023-03-23T08:44:57;9.43;;;2.70;;
17598;SDS011;8918;52.092;5.232;2023-03-23T08:47:23;10.07;;;3.33;;
17598;SDS011;8918;52.092;5.232;2023-03-23T08:49:49;7.40;;;2.50;;
17598;SDS011;8918;52.092;5.232;2023-03-23T08:52:17;8.10;;;2.97;;
17598;SDS011;8918;52.092;5.232;2023-03-23T08:54:45;8.30;;;2.80;;
17598;SDS011;8918;52.092;5.232;2023-03-23T08:57:12;9.37;;;2.57;;
17598;SDS011;8918;52.092;5.232;2023-03-23T08:59:39;8.97;;;2.70;;
17598;SDS011;8918;52.092;5.232;2023-03-23T09:02:06;6.03;;;2.20;;
17598;SDS011;8918;52.092;5.232;2023-03-23T09:04:34;9.03;;;2.87;;
17598;SDS011;8918;52.092;5.232;2023-03-23T09:07:01;10.73;;;2.93;;
17598;SDS011;8918;52.092;5.232;2023-03-23T09:09:27;8.83;;;2.63;;
17598;SDS011;8918;52.092;5.232;2023-03-23T09:11:53;7.43;;;3.10;;
17598;SDS011;8918;52.092;5.232;2023-03-23T09:14:19;8.53;;;2.80;;
17598;SDS011;8918;52.092;5.232;2023-03-23T09:16:44;9.03;;;3.23;;
17598;SDS011;8918;52.092;5.232;2023-03-23T09:19:10;9.37;;;3.07;;
17598;SDS011;8918;52.092;5.232;2023-03-23T09:21:37;8.80;;;3.00;;
17598;SDS011;8918;52.092;5.232;2023-03-23T09:24:03;9.57;;;3.27;;
17598;SDS011;8918;52.092;5.232;2023-03-23T09:26:30;6.40;;;2.47;;
17598;SDS011;8918;52.092;5.232;2023-03-23T09:28:56;12.77;;;3.33;;
17598;SDS011;8918;52.092;5.232;2023-03-23T09:31:23;12.10;;;2.80;;
17598;SDS011;8918;52.092;5.232;2023-03-23T09:33:51;9.30;;;3.00;;
17598;SDS011;8918;52.092;5.232;2023-03-23T09:36:20;9.83;;;2.80;;
17598;SDS011;8918;52.092;5.232;2023-03-23T09:38:46;13.40;;;2.83;;
17598;SDS011;8918;52.092;5.232;2023-03-23T09:41:33;11.73;;;3.53;;
17598;SDS011;8918;52.092;5.232;2023-03-23T09:47:25;8.53;;;2.67;;
17598;SDS011;8918;52.092;5.232;2023-03-23T09:50:21;9.80;;;2.40;;
17598;SDS011;8918;52.092;5.232;2023-03-23T09:52:58;13.53;;;2.80;;
17598;SDS011;8918;52.092;5.232;2023-03-23T09:55:33;8.17;;;2.70;;
17598;SDS011;8918;52.092;5.232;2023-03-23T10:00:57;9.17;;;2.70;;
17598;SDS011;8918;52.092;5.232;2023-03-23T10:03:31;9.90;;;2.73;;
17598;SDS011;8918;52.092;5.232;2023-03-23T10:06:02;6.13;;;1.87;;
17598;SDS011;8918;52.092;5.232;2023-03-23T10:08:32;9.37;;;2.30;;
17598;SDS011;8918;52.092;5.232;2023-03-23T10:11:03;10.40;;;3.00;;
17598;SDS011;8918;52.092;5.232;2023-03-23T10:17:39;7.50;;;2.17;;
17598;SDS011;8918;52.092;5.232;2023-03-23T10:19:46;8.63;;;2.43;;
17598;SDS011;8918;52.092;5.232;2023-03-23T10:22:38;10.83;;;2.37;;
17598;SDS011;8918;52.092;5.232;2023-03-23T10:30:24;8.97;;;2.47;;
17598;SDS011;8918;52.092;5.232;2023-03-23T10:33:03;9.17;;;2.60;;
17598;SDS011;8918;52.092;5.232;2023-03-23T10:35:43;10.83;;;3.27;;
17598;SDS011;8918;52.092;5.232;2023-03-23T10:38:14;7.60;;;2.37;;
17598;SDS011;8918;52.092;5.232;2023-03-23T10:40:49;12.27;;;3.27;;
17598;SDS011;8918;52.092;5.232;2023-03-23T10:43:19;9.57;;;2.90;;
17598;SDS011;8918;52.092;5.232;2023-03-23T10:45:45;12.90;;;3.00;;
17598;SDS011;8918;52.092;5.232;2023-03-23T10:48:25;10.00;;;2.60;;
17598;SDS011;8918;52.092;5.232;2023-03-23T10:50:57;8.10;;;2.80;;
17598;SDS011;8918;52.092;5.232;2023-03-23T10:53:28;5.93;;;2.70;;
17598;SDS011;8918;52.092;5.232;2023-03-23T10:56:03;7.32;;;2.58;;
17598;SDS011;8918;52.092;5.232;2023-03-23T10:58:31;6.28;;;2.33;;
17598;SDS011;8918;52.092;5.232;2023-03-23T11:00:59;9.98;;;2.50;;
17598;SDS011;8918;52.092;5.232;2023-03-23T11:03:33;10.65;;;2.85;;
17598;SDS011;8918;52.092;5.232;2023-03-23T11:06:06;9.07;;;2.55;;
17598;SDS011;8918;52.092;5.232;2023-03-23T11:08:36;11.48;;;2.70;;
17598;SDS011;8918;52.092;5.232;2023-03-23T11:13:49;10.50;;;2.80;;
17598;SDS011;8918;52.092;5.232;2023-03-23T11:16:28;11.00;;;2.97;;
17598;SDS011;8918;52.092;5.232;2023-03-23T11:18:59;8.97;;;2.90;;
17598;SDS011;8918;52.092;5.232;2023-03-23T11:21:27;9.57;;;2.80;;
17598;SDS011;8918;52.092;5.232;2023-03-23T11:23:54;8.83;;;2.87;;
17598;SDS011;8918;52.092;5.232;2023-03-23T11:26:27;4.60;;;2.22;;
17598;SDS011;8918;52.092;5.232;2023-03-23T11:31:23;10.45;;;2.65;;
17598;SDS011;8918;52.092;5.232;2023-03-23T11:34:00;8.50;;;2.38;;
17598;SDS011;8918;52.092;5.232;2023-03-23T11:36:36;6.07;;;2.30;;
17598;SDS011;8918;52.092;5.232;2023-03-23T11:39:17;9.63;;;2.60;;
17598;SDS011;8918;52.092;5.232;2023-03-23T11:41:52;9.48;;;2.65;;
17598;SDS011;8918;52.092;5.232;2023-03-23T11:44:20;10.43;;;3.00;;
17598;SDS011;8918;52.092;5.232;2023-03-23T11:52:19;8.65;;;2.70;;
17598;SDS011;8918;52.092;5.232;2023-03-23T11:54:55;11.60;;;2.90;;
17598;SDS011;8918;52.092;5.232;2023-03-23T11:57:27;10.38;;;2.90;;
17598;SDS011;8918;52.092;5.232;2023-03-23T11:59:55;9.32;;;2.90;;
17598;SDS011;8918;52.092;5.232;2023-03-23T12:05:30;8.70;;;2.47;;
17598;SDS011;8918;52.092;5.232;2023-03-23T12:10:46;8.93;;;2.33;;
17598;SDS011;8918;52.092;5.232;2023-03-23T12:13:26;8.15;;;2.53;;
17598;SDS011;8918;52.092;5.232;2023-03-23T12:18:58;9.57;;;2.65;;
17598;SDS011;8918;52.092;5.232;2023-03-23T12:43:18;8.97;;;2.17;;
17598;SDS011;8918;52.092;5.232;2023-03-23T12:49:02;9.63;;;2.58;;
17598;SDS011;8918;52.092;5.232;2023-03-23T12:51:49;6.30;;;2.22;;
17598;SDS011;8918;52.092;5.232;2023-03-23T12:54:35;7.25;;;2.20;;
17598;SDS011;8918;52.092;5.232;2023-03-23T13:01:02;6.07;;;1.90;;
17598;SDS011;8918;52.092;5.232;2023-03-23T13:09:06;7.95;;;2.00;;
17598;SDS011;8918;52.092;5.232;2023-03-23T13:11:37;6.65;;;2.00;;
17598;SDS011;8918;52.092;5.232;2023-03-23T13:22:32;4.93;;;2.00;;
17598;SDS011;8918;52.092;5.232;2023-03-23T13:25:13;7.35;;;2.35;;
17598;SDS011;8918;52.092;5.232;2023-03-23T13:27:43;6.15;;;1.92;;
17598;SDS011;8918;52.092;5.232;2023-03-23T13:30:21;9.35;;;2.03;;
17598;SDS011;8918;52.092;5.232;2023-03-23T13:32:50;6.63;;;2.20;;
17598;SDS011;8918;52.092;5.232;2023-03-23T13:35:18;5.97;;;2.00;;
17598;SDS011;8918;52.092;5.232;2023-03-23T13:37:47;6.05;;;1.92;;
17598;SDS011;8918;52.092;5.232;2023-03-23T13:42:54;6.25;;;2.25;;
17598;SDS011;8918;52.092;5.232;2023-03-23T13:45:23;6.15;;;1.90;;
17598;SDS011;8918;52.092;5.232;2023-03-23T13:50:43;8.73;;;2.35;;
17598;SDS011;8918;52.092;5.232;2023-03-23T13:53:24;7.78;;;2.10;;
17598;SDS011;8918;52.092;5.232;2023-03-23T13:58:48;7.32;;;2.25;;
17598;SDS011;8918;52.092;5.232;2023-03-23T14:01:30;13.30;;;2.50;;
17598;SDS011;8918;52.092;5.232;2023-03-23T14:04:00;5.35;;;2.00;;
17598;SDS011;8918;52.092;5.232;2023-03-23T14:06:33;8.93;;;2.80;;
17598;SDS011;8918;52.092;5.232;2023-03-23T14:09:04;7.80;;;2.40;;
17598;SDS011;8918;52.092;5.232;2023-03-23T14:11:45;6.80;;;2.57;;
17598;SDS011;8918;52.092;5.232;2023-03-23T14:14:34;6.27;;;2.53;;
17598;SDS011;8918;52.092;5.232;2023-03-23T14:17:12;9.53;;;2.80;;
17598;SDS011;8918;52.092;5.232;2023-03-23T14:19:47;10.10;;;2.70;;
17598;SDS011;8918;52.092;5.232;2023-03-23T14:25:01;8.43;;;2.80;;
17598;SDS011;8918;52.092;5.232;2023-03-23T14:27:50;7.97;;;2.80;;
17598;SDS011;8918;52.092;5.232;2023-03-23T14:30:26;10.97;;;3.10;;
17598;SDS011;8918;52.092;5.232;2023-03-23T14:33:06;8.07;;;2.80;;
17598;SDS011;8918;52.092;5.232;2023-03-23T14:35:36;6.25;;;2.25;;
17598;SDS011;8918;52.092;5.232;2023-03-23T14:38:04;8.93;;;2.50;;
17598;SDS011;8918;52.092;5.232;2023-03-23T14:40:35;9.00;;;2.83;;
17598;SDS011;8918;52.092;5.232;2023-03-23T14:43:00;6.32;;;2.42;;
17598;SDS011;8918;52.092;5.232;2023-03-23T14:45:26;7.45;;;2.10;;
17598;SDS011;8918;52.092;5.232;2023-03-23T14:47:53;7.72;;;2.00;;
17598;SDS011;8918;52.092;5.232;2023-03-23T14:50:36;10.35;;;2.47;;
17598;SDS011;8918;52.092;5.232;2023-03-23T14:53:19;8.27;;;2.55;;
17598;SDS011;8918;52.092;5.232;2023-03-23T14:55:48;7.15;;;2.60;;
17598;SDS011;8918;52.092;5.232;2023-03-23T14:58:16;6.78;;;2.20;;
17598;SDS011;8918;52.092;5.232;2023-03-23T15:00:47;5.70;;;2.00;;
17598;SDS011;8918;52.092;5.232;2023-03-23T15:03:21;8.43;;;2.42;;
17598;SDS011;8918;52.092;5.232;2023-03-23T15:05:50;5.20;;;2.15;;
17598;SDS011;8918;52.092;5.232;2023-03-23T15:08:23;6.65;;;2.40;;
17598;SDS011;8918;52.092;5.232;2023-03-23T15:13:53;6.80;;;1.95;;
17598;SDS011;8918;52.092;5.232;2023-03-23T15:16:26;6.32;;;2.03;;
17598;SDS011;8918;52.092;5.232;2023-03-23T15:18:54;5.78;;;2.20;;
17598;SDS011;8918;52.092;5.232;2023-03-23T15:21:31;6.47;;;2.22;;
17598;SDS011;8918;52.092;5.232;2023-03-23T15:23:59;7.95;;;2.40;;
17598;SDS011;8918;52.092;5.232;2023-03-23T15:26:26;7.18;;;2.00;;
17598;SDS011;8918;52.092;5.232;2023-03-23T15:31:33;11.05;;;2.45;;
17598;SDS011;8918;52.092;5.232;2023-03-23T15:34:01;9.55;;;2.83;;
17598;SDS011;8918;52.092;5.232;2023-03-23T15:36:31;7.13;;;2.33;;
17598;SDS011;8918;52.092;5.232;2023-03-23T15:38:59;8.15;;;2.70;;
17598;SDS011;8918;52.092;5.232;2023-03-23T15:41:28;7.57;;;2.13;;
17598;SDS011;8918;52.092;5.232;2023-03-23T15:44:08;10.30;;;2.65;;
17598;SDS011;8918;52.092;5.232;2023-03-23T15:46:35;10.15;;;2.50;;
17598;SDS011;8918;52.092;5.232;2023-03-23T15:49:11;7.43;;;1.90;;
17598;SDS011;8918;52.092;5.232;2023-03-23T15:51:38;7.93;;;2.28;;
17598;SDS011;8918;52.092;5.232;2023-03-23T15:54:05;6.65;;;2.22;;
17598;SDS011;8918;52.092;5.232;2023-03-23T15:56:36;8.35;;;2.22;;
17598;SDS011;8918;52.092;5.232;2023-03-23T15:59:02;8.52;;;2.78;;
17598;SDS011;8918;52.092;5.232;2023-03-23T16:01:28;9.10;;;2.35;;
17598;SDS011;8918;52.092;5.232;2023-03-23T16:03:59;7.60;;;2.50;;
17598;SDS011;8918;52.092;5.232;2023-03-23T16:06:30;7.30;;;2.60;;
17598;SDS011;8918;52.092;5.232;2023-03-23T16:08:57;10.75;;;3.03;;
17598;SDS011;8918;52.092;5.232;2023-03-23T16:11:24;8.10;;;2.35;;
17598;SDS011;8918;52.092;5.232;2023-03-23T16:13:53;8.15;;;2.45;;
17598;SDS011;8918;52.092;5.232;2023-03-23T16:16:21;13.50;;;3.22;;
17598;SDS011;8918;52.092;5.232;2023-03-23T16:18:52;9.52;;;2.75;;
17598;SDS011;8918;52.092;5.232;2023-03-23T16:21:17;7.10;;;2.30;;
17598;SDS011;8918;52.092;5.232;2023-03-23T16:23:43;10.43;;;3.08;;
17598;SDS011;8918;52.092;5.232;2023-03-23T16:26:12;7.03;;;2.50;;
17598;SDS011;8918;52.092;5.232;2023-03-23T16:28:38;6.60;;;2.63;;
17598;SDS011;8918;52.092;5.232;2023-03-23T16:31:05;8.18;;;2.50;;
17598;SDS011;8918;52.092;5.232;2023-03-23T16:33:31;8.65;;;2.90;;
17598;SDS011;8918;52.092;5.232;2023-03-23T16:35:56;7.95;;;2.67;;
17598;SDS011;8918;52.092;5.232;2023-03-23T16:38:22;8.48;;;2.80;;
17598;SDS011;8918;52.092;5.232;2023-03-23T16:40:48;10.20;;;2.80;;
17598;SDS011;8918;52.092;5.232;2023-03-23T16:43:13;7.78;;;2.65;;
17598;SDS011;8918;52.092;5.232;2023-03-23T16:45:40;9.60;;;2.75;;
17598;SDS011;8918;52.092;5.232;2023-03-23T16:48:07;10.32;;;2.90;;
17598;SDS011;8918;52.092;5.232;2023-03-23T16:50:33;9.45;;;3.13;;
17598;SDS011;8918;52.092;5.232;2023-03-23T16:53:00;7.93;;;2.72;;
17598;SDS011;8918;52.092;5.232;2023-03-23T16:55:26;9.35;;;2.70;;
17598;SDS011;8918;52.092;5.232;2023-03-23T16:57:53;8.02;;;2.80;;
17598;SDS011;8918;52.092;5.232;2023-03-23T17:00:20;12.00;;;3.35;;
17598;SDS011;8918;52.092;5.232;2023-03-23T17:02:49;9.60;;;2.83;;
17598;SDS011;8918;52.092;5.232;2023-03-23T17:05:19;7.80;;;3.10;;
17598;SDS011;8918;52.092;5.232;2023-03-23T17:07:46;12.27;;;3.55;;